sensor_id;sensor_type;location;lat;lon;timestamp;P1;durP1;ratioP1;P2;durP2;ratioP2
36691;SDS011;22678;52.052;4.242;2023-02-15T00:01:22;56.37;;;33.23;;
36691;SDS011;22678;52.052;4.242;2023-02-15T00:03:48;52.77;;;31.00;;
36691;SDS011;22678;52.052;4.242;2023-02-15T00:06:14;57.67;;;29.83;;
36691;SDS011;22678;52.052;4.242;2023-02-15T00:08:39;59.87;;;32.70;;
36691;SDS011;22678;52.052;4.242;2023-02-15T00:11:06;53.13;;;31.97;;
36691;SDS011;22678;52.052;4.242;2023-02-15T00:13:32;57.33;;;33.37;;
36691;SDS011;22678;52.052;4.242;2023-02-15T00:16:04;62.27;;;34.73;;
36691;SDS011;22678;52.052;4.242;2023-02-15T00:18:31;57.77;;;34.43;;
36691;SDS011;22678;52.052;4.242;2023-02-15T00:20:57;61.33;;;33.97;;
36691;SDS011;22678;52.052;4.242;2023-02-15T00:23:23;56.37;;;31.27;;
36691;SDS011;22678;52.052;4.242;2023-02-15T00:25:48;58.23;;;31.40;;
36691;SDS011;22678;52.052;4.242;2023-02-15T00:28:13;61.83;;;32.03;;
36691;SDS011;22678;52.052;4.242;2023-02-15T00:30:39;58.87;;;32.30;;
36691;SDS011;22678;52.052;4.242;2023-02-15T00:33:04;52.27;;;30.90;;
36691;SDS011;22678;52.052;4.242;2023-02-15T00:35:29;59.30;;;31.07;;
36691;SDS011;22678;52.052;4.242;2023-02-15T00:37:55;58.07;;;33.63;;
36691;SDS011;22678;52.052;4.242;2023-02-15T00:40:21;60.47;;;32.83;;
36691;SDS011;22678;52.052;4.242;2023-02-15T00:42:46;61.90;;;30.87;;
36691;SDS011;22678;52.052;4.242;2023-02-15T00:45:11;60.57;;;33.23;;
36691;SDS011;22678;52.052;4.242;2023-02-15T00:47:37;58.27;;;35.20;;
36691;SDS011;22678;52.052;4.242;2023-02-15T00:50:02;65.67;;;33.40;;
36691;SDS011;22678;52.052;4.242;2023-02-15T00:52:28;54.70;;;32.07;;
36691;SDS011;22678;52.052;4.242;2023-02-15T00:54:53;67.93;;;36.13;;
36691;SDS011;22678;52.052;4.242;2023-02-15T00:57:18;59.73;;;33.23;;
36691;SDS011;22678;52.052;4.242;2023-02-15T00:59:44;52.40;;;30.90;;
36691;SDS011;22678;52.052;4.242;2023-02-15T01:02:09;54.10;;;32.43;;
36691;SDS011;22678;52.052;4.242;2023-02-15T01:04:34;58.80;;;32.90;;
36691;SDS011;22678;52.052;4.242;2023-02-15T01:06:59;63.30;;;33.47;;
36691;SDS011;22678;52.052;4.242;2023-02-15T01:09:26;55.17;;;30.57;;
36691;SDS011;22678;52.052;4.242;2023-02-15T01:11:52;57.37;;;32.60;;
36691;SDS011;22678;52.052;4.242;2023-02-15T01:14:17;56.87;;;30.90;;
36691;SDS011;22678;52.052;4.242;2023-02-15T01:16:42;53.53;;;30.67;;
36691;SDS011;22678;52.052;4.242;2023-02-15T01:19:08;53.80;;;29.73;;
36691;SDS011;22678;52.052;4.242;2023-02-15T01:21:33;89.27;;;45.27;;
36691;SDS011;22678;52.052;4.242;2023-02-15T01:23:59;75.80;;;42.23;;
36691;SDS011;22678;52.052;4.242;2023-02-15T01:26:25;85.67;;;43.20;;
36691;SDS011;22678;52.052;4.242;2023-02-15T01:28:51;81.87;;;40.33;;
36691;SDS011;22678;52.052;4.242;2023-02-15T01:31:18;78.50;;;39.97;;
36691;SDS011;22678;52.052;4.242;2023-02-15T01:33:45;75.60;;;37.43;;
36691;SDS011;22678;52.052;4.242;2023-02-15T01:36:11;78.70;;;40.87;;
36691;SDS011;22678;52.052;4.242;2023-02-15T01:38:36;69.67;;;36.83;;
36691;SDS011;22678;52.052;4.242;2023-02-15T01:41:02;74.37;;;39.53;;
36691;SDS011;22678;52.052;4.242;2023-02-15T01:43:57;64.00;;;32.33;;
36691;SDS011;22678;52.052;4.242;2023-02-15T01:46:31;62.37;;;30.07;;
36691;SDS011;22678;52.052;4.242;2023-02-15T01:49:01;56.90;;;29.37;;
36691;SDS011;22678;52.052;4.242;2023-02-15T01:51:36;61.87;;;33.50;;
36691;SDS011;22678;52.052;4.242;2023-02-15T01:56:52;54.23;;;30.50;;
36691;SDS011;22678;52.052;4.242;2023-02-15T01:59:23;141.70;;;67.63;;
36691;SDS011;22678;52.052;4.242;2023-02-15T02:01:53;87.60;;;46.10;;
36691;SDS011;22678;52.052;4.242;2023-02-15T02:04:57;97.67;;;48.63;;
36691;SDS011;22678;52.052;4.242;2023-02-15T02:09:44;69.23;;;33.90;;
36691;SDS011;22678;52.052;4.242;2023-02-15T02:12:10;65.67;;;33.67;;
36691;SDS011;22678;52.052;4.242;2023-02-15T02:14:36;61.67;;;33.40;;
36691;SDS011;22678;52.052;4.242;2023-02-15T02:20:13;54.17;;;28.40;;
36691;SDS011;22678;52.052;4.242;2023-02-15T02:25:44;62.17;;;29.87;;
36691;SDS011;22678;52.052;4.242;2023-02-15T02:35:08;52.97;;;30.30;;
36691;SDS011;22678;52.052;4.242;2023-02-15T02:37:23;58.30;;;31.37;;
36691;SDS011;22678;52.052;4.242;2023-02-15T02:40:03;51.77;;;29.23;;
36691;SDS011;22678;52.052;4.242;2023-02-15T02:45:04;56.03;;;30.97;;
36691;SDS011;22678;52.052;4.242;2023-02-15T02:47:37;52.77;;;29.63;;
36691;SDS011;22678;52.052;4.242;2023-02-15T02:50:11;55.20;;;28.03;;
36691;SDS011;22678;52.052;4.242;2023-02-15T02:52:46;53.50;;;30.43;;
36691;SDS011;22678;52.052;4.242;2023-02-15T02:57:52;58.83;;;29.37;;
36691;SDS011;22678;52.052;4.242;2023-02-15T03:00:21;46.90;;;25.73;;
36691;SDS011;22678;52.052;4.242;2023-02-15T03:02:49;55.57;;;26.60;;
36691;SDS011;22678;52.052;4.242;2023-02-15T03:05:20;56.13;;;27.80;;
36691;SDS011;22678;52.052;4.242;2023-02-15T03:07:50;50.53;;;27.60;;
36691;SDS011;22678;52.052;4.242;2023-02-15T03:10:18;51.27;;;29.30;;
36691;SDS011;22678;52.052;4.242;2023-02-15T03:12:47;53.57;;;29.63;;
36691;SDS011;22678;52.052;4.242;2023-02-15T03:15:18;52.20;;;28.57;;
36691;SDS011;22678;52.052;4.242;2023-02-15T03:17:51;53.00;;;30.17;;
36691;SDS011;22678;52.052;4.242;2023-02-15T03:20:24;51.77;;;29.43;;
36691;SDS011;22678;52.052;4.242;2023-02-15T03:22:59;55.30;;;28.60;;
36691;SDS011;22678;52.052;4.242;2023-02-15T03:25:38;49.47;;;27.27;;
36691;SDS011;22678;52.052;4.242;2023-02-15T03:28:06;56.77;;;26.63;;
36691;SDS011;22678;52.052;4.242;2023-02-15T03:30:35;49.23;;;28.00;;
36691;SDS011;22678;52.052;4.242;2023-02-15T03:33:02;58.07;;;29.37;;
36691;SDS011;22678;52.052;4.242;2023-02-15T03:35:36;55.43;;;30.27;;
36691;SDS011;22678;52.052;4.242;2023-02-15T03:38:08;53.60;;;28.50;;
36691;SDS011;22678;52.052;4.242;2023-02-15T03:40:38;49.43;;;25.97;;
36691;SDS011;22678;52.052;4.242;2023-02-15T03:46:20;55.60;;;28.97;;
36691;SDS011;22678;52.052;4.242;2023-02-15T03:49:50;53.05;;;27.20;;
36691;SDS011;22678;52.052;4.242;2023-02-15T03:51:48;59.60;;;30.33;;
36691;SDS011;22678;52.052;4.242;2023-02-15T03:54:17;52.43;;;27.90;;
36691;SDS011;22678;52.052;4.242;2023-02-15T03:57:06;50.87;;;27.53;;
36691;SDS011;22678;52.052;4.242;2023-02-15T03:59:52;49.57;;;29.00;;
36691;SDS011;22678;52.052;4.242;2023-02-15T04:02:43;56.63;;;29.03;;
36691;SDS011;22678;52.052;4.242;2023-02-15T04:05:17;46.53;;;27.67;;
36691;SDS011;22678;52.052;4.242;2023-02-15T04:07:42;53.43;;;28.73;;
36691;SDS011;22678;52.052;4.242;2023-02-15T04:10:08;53.70;;;26.77;;
36691;SDS011;22678;52.052;4.242;2023-02-15T04:12:52;55.57;;;28.43;;
36691;SDS011;22678;52.052;4.242;2023-02-15T04:15:17;47.80;;;26.90;;
36691;SDS011;22678;52.052;4.242;2023-02-15T04:18:02;54.33;;;28.07;;
36691;SDS011;22678;52.052;4.242;2023-02-15T04:20:28;55.53;;;29.53;;
36691;SDS011;22678;52.052;4.242;2023-02-15T04:23:12;52.53;;;28.33;;
36691;SDS011;22678;52.052;4.242;2023-02-15T04:25:55;51.77;;;27.17;;
36691;SDS011;22678;52.052;4.242;2023-02-15T04:28:21;50.00;;;27.10;;
36691;SDS011;22678;52.052;4.242;2023-02-15T04:30:46;50.33;;;25.37;;
36691;SDS011;22678;52.052;4.242;2023-02-15T04:33:11;50.57;;;26.43;;
36691;SDS011;22678;52.052;4.242;2023-02-15T04:35:37;53.30;;;28.63;;
36691;SDS011;22678;52.052;4.242;2023-02-15T04:38:02;61.60;;;31.07;;
36691;SDS011;22678;52.052;4.242;2023-02-15T04:40:27;52.17;;;27.07;;
36691;SDS011;22678;52.052;4.242;2023-02-15T04:42:52;66.37;;;31.33;;
36691;SDS011;22678;52.052;4.242;2023-02-15T04:45:18;58.20;;;30.57;;
36691;SDS011;22678;52.052;4.242;2023-02-15T04:47:43;68.03;;;32.27;;
36691;SDS011;22678;52.052;4.242;2023-02-15T04:50:09;65.83;;;30.47;;
36691;SDS011;22678;52.052;4.242;2023-02-15T04:52:34;55.57;;;28.17;;
36691;SDS011;22678;52.052;4.242;2023-02-15T04:55:00;51.80;;;28.40;;
36691;SDS011;22678;52.052;4.242;2023-02-15T04:57:25;58.17;;;30.57;;
36691;SDS011;22678;52.052;4.242;2023-02-15T04:59:50;60.00;;;29.27;;
36691;SDS011;22678;52.052;4.242;2023-02-15T05:02:15;59.27;;;30.07;;
36691;SDS011;22678;52.052;4.242;2023-02-15T05:04:41;57.00;;;28.63;;
36691;SDS011;22678;52.052;4.242;2023-02-15T05:07:06;65.33;;;30.60;;
36691;SDS011;22678;52.052;4.242;2023-02-15T05:09:31;63.03;;;30.63;;
36691;SDS011;22678;52.052;4.242;2023-02-15T05:11:57;55.10;;;29.70;;
36691;SDS011;22678;52.052;4.242;2023-02-15T05:14:22;45.93;;;25.83;;
36691;SDS011;22678;52.052;4.242;2023-02-15T05:16:47;51.40;;;28.27;;
36691;SDS011;22678;52.052;4.242;2023-02-15T05:19:13;56.43;;;29.13;;
36691;SDS011;22678;52.052;4.242;2023-02-15T05:21:38;62.70;;;30.77;;
36691;SDS011;22678;52.052;4.242;2023-02-15T05:24:03;59.93;;;30.40;;
36691;SDS011;22678;52.052;4.242;2023-02-15T05:26:49;67.13;;;30.97;;
36691;SDS011;22678;52.052;4.242;2023-02-15T05:29:33;59.87;;;29.30;;
36691;SDS011;22678;52.052;4.242;2023-02-15T05:31:58;66.90;;;31.63;;
36691;SDS011;22678;52.052;4.242;2023-02-15T05:34:23;47.70;;;25.87;;
36691;SDS011;22678;52.052;4.242;2023-02-15T05:36:49;71.47;;;35.37;;
36691;SDS011;22678;52.052;4.242;2023-02-15T05:39:14;62.30;;;32.47;;
36691;SDS011;22678;52.052;4.242;2023-02-15T05:41:39;60.87;;;29.80;;
36691;SDS011;22678;52.052;4.242;2023-02-15T05:44:04;60.53;;;33.53;;
36691;SDS011;22678;52.052;4.242;2023-02-15T05:46:30;75.43;;;37.77;;
36691;SDS011;22678;52.052;4.242;2023-02-15T05:48:55;62.37;;;31.67;;
36691;SDS011;22678;52.052;4.242;2023-02-15T05:51:20;75.80;;;36.00;;
36691;SDS011;22678;52.052;4.242;2023-02-15T05:53:45;85.53;;;35.67;;
36691;SDS011;22678;52.052;4.242;2023-02-15T05:56:11;76.47;;;38.30;;
36691;SDS011;22678;52.052;4.242;2023-02-15T05:58:37;68.77;;;34.87;;
36691;SDS011;22678;52.052;4.242;2023-02-15T06:01:08;65.87;;;33.57;;
36691;SDS011;22678;52.052;4.242;2023-02-15T06:03:34;73.83;;;38.50;;
36691;SDS011;22678;52.052;4.242;2023-02-15T06:06:00;72.20;;;33.27;;
36691;SDS011;22678;52.052;4.242;2023-02-15T06:08:25;78.83;;;34.27;;
36691;SDS011;22678;52.052;4.242;2023-02-15T06:10:50;69.97;;;36.07;;
36691;SDS011;22678;52.052;4.242;2023-02-15T06:13:16;74.63;;;32.53;;
36691;SDS011;22678;52.052;4.242;2023-02-15T06:15:41;74.40;;;35.50;;
36691;SDS011;22678;52.052;4.242;2023-02-15T06:18:06;70.87;;;35.37;;
36691;SDS011;22678;52.052;4.242;2023-02-15T06:20:32;75.47;;;34.77;;
36691;SDS011;22678;52.052;4.242;2023-02-15T06:22:57;77.60;;;37.10;;
36691;SDS011;22678;52.052;4.242;2023-02-15T06:25:22;72.77;;;36.67;;
36691;SDS011;22678;52.052;4.242;2023-02-15T06:27:49;76.83;;;36.13;;
36691;SDS011;22678;52.052;4.242;2023-02-15T06:30:14;81.60;;;39.47;;
36691;SDS011;22678;52.052;4.242;2023-02-15T06:32:40;71.77;;;35.47;;
36691;SDS011;22678;52.052;4.242;2023-02-15T06:35:05;65.40;;;36.57;;
36691;SDS011;22678;52.052;4.242;2023-02-15T06:37:31;77.10;;;34.97;;
36691;SDS011;22678;52.052;4.242;2023-02-15T06:39:56;74.90;;;37.07;;
36691;SDS011;22678;52.052;4.242;2023-02-15T06:42:22;73.37;;;38.53;;
36691;SDS011;22678;52.052;4.242;2023-02-15T06:44:49;63.60;;;32.50;;
36691;SDS011;22678;52.052;4.242;2023-02-15T06:47:14;76.07;;;37.70;;
36691;SDS011;22678;52.052;4.242;2023-02-15T06:49:39;76.40;;;34.13;;
36691;SDS011;22678;52.052;4.242;2023-02-15T06:52:05;65.50;;;33.13;;
36691;SDS011;22678;52.052;4.242;2023-02-15T06:54:30;72.63;;;34.57;;
36691;SDS011;22678;52.052;4.242;2023-02-15T06:56:55;72.47;;;33.90;;
36691;SDS011;22678;52.052;4.242;2023-02-15T06:59:21;70.20;;;32.30;;
36691;SDS011;22678;52.052;4.242;2023-02-15T07:01:46;83.57;;;33.33;;
36691;SDS011;22678;52.052;4.242;2023-02-15T07:04:11;80.67;;;37.53;;
36691;SDS011;22678;52.052;4.242;2023-02-15T07:06:37;67.10;;;36.03;;
36691;SDS011;22678;52.052;4.242;2023-02-15T07:09:02;66.57;;;35.20;;
36691;SDS011;22678;52.052;4.242;2023-02-15T07:11:28;68.37;;;36.50;;
36691;SDS011;22678;52.052;4.242;2023-02-15T07:14:12;76.97;;;38.37;;
36691;SDS011;22678;52.052;4.242;2023-02-15T07:16:37;65.60;;;34.30;;
36691;SDS011;22678;52.052;4.242;2023-02-15T07:19:03;67.80;;;33.97;;
36691;SDS011;22678;52.052;4.242;2023-02-15T07:21:28;72.17;;;32.50;;
36691;SDS011;22678;52.052;4.242;2023-02-15T07:23:55;71.17;;;34.27;;
36691;SDS011;22678;52.052;4.242;2023-02-15T07:26:22;70.80;;;33.67;;
36691;SDS011;22678;52.052;4.242;2023-02-15T07:28:48;73.13;;;35.60;;
36691;SDS011;22678;52.052;4.242;2023-02-15T07:31:13;73.30;;;35.30;;
36691;SDS011;22678;52.052;4.242;2023-02-15T07:33:38;76.37;;;36.90;;
36691;SDS011;22678;52.052;4.242;2023-02-15T07:36:04;76.87;;;37.27;;
36691;SDS011;22678;52.052;4.242;2023-02-15T07:38:30;90.87;;;39.13;;
36691;SDS011;22678;52.052;4.242;2023-02-15T07:41:01;71.40;;;35.97;;
36691;SDS011;22678;52.052;4.242;2023-02-15T07:43:28;84.03;;;39.80;;
36691;SDS011;22678;52.052;4.242;2023-02-15T07:45:54;81.67;;;41.03;;
36691;SDS011;22678;52.052;4.242;2023-02-15T07:48:23;91.37;;;39.77;;
36691;SDS011;22678;52.052;4.242;2023-02-15T07:50:48;84.23;;;39.90;;
36691;SDS011;22678;52.052;4.242;2023-02-15T07:53:14;94.57;;;41.40;;
36691;SDS011;22678;52.052;4.242;2023-02-15T07:55:39;77.63;;;36.70;;
36691;SDS011;22678;52.052;4.242;2023-02-15T07:58:04;87.43;;;41.87;;
36691;SDS011;22678;52.052;4.242;2023-02-15T08:00:30;97.40;;;42.17;;
36691;SDS011;22678;52.052;4.242;2023-02-15T08:03:15;79.17;;;40.50;;
36691;SDS011;22678;52.052;4.242;2023-02-15T08:05:41;84.33;;;40.53;;
36691;SDS011;22678;52.052;4.242;2023-02-15T08:08:08;81.63;;;36.83;;
36691;SDS011;22678;52.052;4.242;2023-02-15T08:10:56;74.63;;;39.40;;
36691;SDS011;22678;52.052;4.242;2023-02-15T08:13:42;82.70;;;42.20;;
36691;SDS011;22678;52.052;4.242;2023-02-15T08:16:24;88.93;;;42.17;;
36691;SDS011;22678;52.052;4.242;2023-02-15T08:18:51;85.53;;;41.73;;
36691;SDS011;22678;52.052;4.242;2023-02-15T08:21:17;86.00;;;41.63;;
36691;SDS011;22678;52.052;4.242;2023-02-15T08:23:43;84.40;;;41.73;;
36691;SDS011;22678;52.052;4.242;2023-02-15T08:26:08;83.40;;;39.90;;
36691;SDS011;22678;52.052;4.242;2023-02-15T08:28:34;76.17;;;42.47;;
36691;SDS011;22678;52.052;4.242;2023-02-15T08:31:09;83.07;;;40.07;;
36691;SDS011;22678;52.052;4.242;2023-02-15T08:33:36;76.57;;;40.37;;
36691;SDS011;22678;52.052;4.242;2023-02-15T08:36:03;78.40;;;41.40;;
36691;SDS011;22678;52.052;4.242;2023-02-15T08:38:30;77.57;;;40.37;;
36691;SDS011;22678;52.052;4.242;2023-02-15T08:40:56;75.83;;;43.00;;
36691;SDS011;22678;52.052;4.242;2023-02-15T08:43:21;84.50;;;45.40;;
36691;SDS011;22678;52.052;4.242;2023-02-15T08:45:47;88.00;;;45.63;;
36691;SDS011;22678;52.052;4.242;2023-02-15T08:48:12;87.90;;;44.10;;
36691;SDS011;22678;52.052;4.242;2023-02-15T08:50:38;90.93;;;47.20;;
36691;SDS011;22678;52.052;4.242;2023-02-15T08:53:03;86.03;;;41.90;;
36691;SDS011;22678;52.052;4.242;2023-02-15T08:55:28;91.73;;;44.70;;
36691;SDS011;22678;52.052;4.242;2023-02-15T08:57:54;87.17;;;47.03;;
36691;SDS011;22678;52.052;4.242;2023-02-15T09:00:20;82.80;;;46.40;;
36691;SDS011;22678;52.052;4.242;2023-02-15T09:02:47;78.53;;;44.57;;
36691;SDS011;22678;52.052;4.242;2023-02-15T09:05:13;94.37;;;46.73;;
36691;SDS011;22678;52.052;4.242;2023-02-15T09:07:38;82.77;;;44.57;;
36691;SDS011;22678;52.052;4.242;2023-02-15T09:10:04;88.07;;;46.03;;
36691;SDS011;22678;52.052;4.242;2023-02-15T09:12:30;78.27;;;40.47;;
36691;SDS011;22678;52.052;4.242;2023-02-15T09:14:55;72.00;;;42.00;;
36691;SDS011;22678;52.052;4.242;2023-02-15T09:17:20;82.97;;;44.37;;
36691;SDS011;22678;52.052;4.242;2023-02-15T09:19:45;86.13;;;45.33;;
36691;SDS011;22678;52.052;4.242;2023-02-15T09:22:11;86.67;;;45.73;;
36691;SDS011;22678;52.052;4.242;2023-02-15T09:24:36;73.27;;;42.37;;
36691;SDS011;22678;52.052;4.242;2023-02-15T09:27:01;71.07;;;39.23;;
36691;SDS011;22678;52.052;4.242;2023-02-15T09:29:27;72.50;;;41.97;;
36691;SDS011;22678;52.052;4.242;2023-02-15T09:31:52;77.93;;;42.87;;
36691;SDS011;22678;52.052;4.242;2023-02-15T09:34:19;68.87;;;38.53;;
36691;SDS011;22678;52.052;4.242;2023-02-15T09:36:46;70.70;;;39.63;;
36691;SDS011;22678;52.052;4.242;2023-02-15T09:39:12;80.30;;;40.73;;
36691;SDS011;22678;52.052;4.242;2023-02-15T09:53:29;69.83;;;34.57;;
36691;SDS011;22678;52.052;4.242;2023-02-15T09:59:15;63.23;;;31.73;;
36691;SDS011;22678;52.052;4.242;2023-02-15T10:13:08;57.87;;;31.13;;
36691;SDS011;22678;52.052;4.242;2023-02-15T10:24:17;58.80;;;34.27;;
36691;SDS011;22678;52.052;4.242;2023-02-15T10:27:02;56.63;;;31.03;;
36691;SDS011;22678;52.052;4.242;2023-02-15T10:29:37;63.87;;;34.93;;
36691;SDS011;22678;52.052;4.242;2023-02-15T10:32:11;61.87;;;30.17;;
36691;SDS011;22678;52.052;4.242;2023-02-15T10:40:06;60.50;;;33.37;;
36691;SDS011;22678;52.052;4.242;2023-02-15T10:50:41;59.60;;;31.23;;
36691;SDS011;22678;52.052;4.242;2023-02-15T10:58:44;55.20;;;30.03;;
36691;SDS011;22678;52.052;4.242;2023-02-15T11:06:27;56.07;;;32.60;;
36691;SDS011;22678;52.052;4.242;2023-02-15T11:08:57;56.73;;;31.87;;
36691;SDS011;22678;52.052;4.242;2023-02-15T11:13:57;58.43;;;29.87;;
36691;SDS011;22678;52.052;4.242;2023-02-15T11:16:31;60.13;;;29.93;;
36691;SDS011;22678;52.052;4.242;2023-02-15T11:19:05;57.47;;;30.90;;
36691;SDS011;22678;52.052;4.242;2023-02-15T11:21:45;52.53;;;30.67;;
36691;SDS011;22678;52.052;4.242;2023-02-15T11:24:17;56.23;;;28.60;;
36691;SDS011;22678;52.052;4.242;2023-02-15T11:29:24;58.55;;;28.08;;
36691;SDS011;22678;52.052;4.242;2023-02-15T11:31:57;48.13;;;30.10;;
36691;SDS011;22678;52.052;4.242;2023-02-15T11:34:38;55.07;;;30.50;;
36691;SDS011;22678;52.052;4.242;2023-02-15T11:37:13;61.72;;;33.90;;
36691;SDS011;22678;52.052;4.242;2023-02-15T11:39:44;61.67;;;29.33;;
36691;SDS011;22678;52.052;4.242;2023-02-15T11:42:16;52.20;;;32.47;;
36691;SDS011;22678;52.052;4.242;2023-02-15T11:44:58;58.77;;;31.47;;
36691;SDS011;22678;52.052;4.242;2023-02-15T11:47:29;44.92;;;28.10;;
36691;SDS011;22678;52.052;4.242;2023-02-15T11:49:54;50.40;;;28.80;;
36691;SDS011;22678;52.052;4.242;2023-02-15T11:52:20;51.17;;;31.03;;
36691;SDS011;22678;52.052;4.242;2023-02-15T11:54:46;49.60;;;29.80;;
36691;SDS011;22678;52.052;4.242;2023-02-15T11:57:28;52.15;;;31.33;;
36691;SDS011;22678;52.052;4.242;2023-02-15T12:00:09;52.65;;;29.70;;
36691;SDS011;22678;52.052;4.242;2023-02-15T12:02:42;62.25;;;28.10;;
36691;SDS011;22678;52.052;4.242;2023-02-15T12:05:13;49.97;;;28.20;;
36691;SDS011;22678;52.052;4.242;2023-02-15T12:07:45;45.55;;;27.08;;
36691;SDS011;22678;52.052;4.242;2023-02-15T12:12:45;47.95;;;27.35;;
36691;SDS011;22678;52.052;4.242;2023-02-15T12:15:11;47.90;;;25.92;;
36691;SDS011;22678;52.052;4.242;2023-02-15T12:17:38;45.67;;;26.83;;
36691;SDS011;22678;52.052;4.242;2023-02-15T12:22:45;53.28;;;28.27;;
36691;SDS011;22678;52.052;4.242;2023-02-15T12:27:52;47.35;;;26.95;;
36691;SDS011;22678;52.052;4.242;2023-02-15T12:30:19;47.40;;;26.23;;
36691;SDS011;22678;52.052;4.242;2023-02-15T12:32:51;55.45;;;28.90;;
36691;SDS011;22678;52.052;4.242;2023-02-15T12:35:29;55.13;;;29.95;;
36691;SDS011;22678;52.052;4.242;2023-02-15T12:37:59;56.22;;;29.88;;
36691;SDS011;22678;52.052;4.242;2023-02-15T12:40:29;48.85;;;29.40;;
36691;SDS011;22678;52.052;4.242;2023-02-15T12:42:55;48.90;;;27.95;;
36691;SDS011;22678;52.052;4.242;2023-02-15T12:50:52;52.53;;;28.45;;
36691;SDS011;22678;52.052;4.242;2023-02-15T12:53:34;42.17;;;26.45;;
36691;SDS011;22678;52.052;4.242;2023-02-15T12:56:02;55.28;;;27.45;;
36691;SDS011;22678;52.052;4.242;2023-02-15T12:58:33;42.70;;;24.75;;
36691;SDS011;22678;52.052;4.242;2023-02-15T13:01:10;49.63;;;28.80;;
36691;SDS011;22678;52.052;4.242;2023-02-15T13:06:26;48.55;;;25.92;;
36691;SDS011;22678;52.052;4.242;2023-02-15T13:08:54;47.28;;;27.58;;
36691;SDS011;22678;52.052;4.242;2023-02-15T13:11:26;51.17;;;26.75;;
36691;SDS011;22678;52.052;4.242;2023-02-15T13:14:03;49.55;;;28.58;;
36691;SDS011;22678;52.052;4.242;2023-02-15T13:16:41;46.55;;;27.67;;
36691;SDS011;22678;52.052;4.242;2023-02-15T13:19:14;52.67;;;28.58;;
36691;SDS011;22678;52.052;4.242;2023-02-15T13:21:44;47.47;;;28.30;;
36691;SDS011;22678;52.052;4.242;2023-02-15T13:26:45;54.53;;;28.08;;
36691;SDS011;22678;52.052;4.242;2023-02-15T13:29:15;52.55;;;26.08;;
36691;SDS011;22678;52.052;4.242;2023-02-15T13:31:46;50.50;;;29.83;;
36691;SDS011;22678;52.052;4.242;2023-02-15T13:37:04;46.78;;;27.02;;
36691;SDS011;22678;52.052;4.242;2023-02-15T13:42:20;49.63;;;26.92;;
36691;SDS011;22678;52.052;4.242;2023-02-15T13:45:13;47.05;;;26.98;;
36691;SDS011;22678;52.052;4.242;2023-02-15T13:47:57;52.15;;;28.40;;
36691;SDS011;22678;52.052;4.242;2023-02-15T14:04:05;45.85;;;25.65;;
36691;SDS011;22678;52.052;4.242;2023-02-15T14:06:50;47.90;;;22.27;;
36691;SDS011;22678;52.052;4.242;2023-02-15T14:19:45;54.42;;;26.48;;
36691;SDS011;22678;52.052;4.242;2023-02-15T14:22:34;48.08;;;25.63;;
36691;SDS011;22678;52.052;4.242;2023-02-15T14:28:04;47.80;;;26.88;;
36691;SDS011;22678;52.052;4.242;2023-02-15T14:30:37;45.58;;;26.27;;
36691;SDS011;22678;52.052;4.242;2023-02-15T14:33:19;47.67;;;27.02;;
36691;SDS011;22678;52.052;4.242;2023-02-15T14:35:50;43.28;;;24.70;;
36691;SDS011;22678;52.052;4.242;2023-02-15T14:41:28;46.80;;;26.75;;
36691;SDS011;22678;52.052;4.242;2023-02-15T14:46:45;39.83;;;23.08;;
36691;SDS011;22678;52.052;4.242;2023-02-15T14:49:27;45.85;;;24.55;;
36691;SDS011;22678;52.052;4.242;2023-02-15T14:51:57;46.53;;;25.90;;
36691;SDS011;22678;52.052;4.242;2023-02-15T14:59:27;45.83;;;24.40;;
36691;SDS011;22678;52.052;4.242;2023-02-15T15:04:37;46.45;;;26.95;;
36691;SDS011;22678;52.052;4.242;2023-02-15T15:09:44;51.17;;;28.45;;
36691;SDS011;22678;52.052;4.242;2023-02-15T15:14:47;45.38;;;25.75;;
36691;SDS011;22678;52.052;4.242;2023-02-15T15:19:59;49.20;;;28.63;;
36691;SDS011;22678;52.052;4.242;2023-02-15T15:22:26;50.10;;;26.45;;
36691;SDS011;22678;52.052;4.242;2023-02-15T15:24:56;54.88;;;27.52;;
36691;SDS011;22678;52.052;4.242;2023-02-15T15:27:46;50.03;;;24.75;;
36691;SDS011;22678;52.052;4.242;2023-02-15T15:35:20;40.40;;;23.63;;
36691;SDS011;22678;52.052;4.242;2023-02-15T15:46:18;42.20;;;24.55;;
36691;SDS011;22678;52.052;4.242;2023-02-15T15:49:10;42.47;;;23.17;;
36691;SDS011;22678;52.052;4.242;2023-02-15T15:51:40;45.45;;;26.10;;
36691;SDS011;22678;52.052;4.242;2023-02-15T15:54:11;46.67;;;27.83;;
36691;SDS011;22678;52.052;4.242;2023-02-15T15:56:40;46.85;;;25.77;;
36691;SDS011;22678;52.052;4.242;2023-02-15T15:59:12;43.17;;;24.42;;
36691;SDS011;22678;52.052;4.242;2023-02-15T16:01:44;40.85;;;22.90;;
36691;SDS011;22678;52.052;4.242;2023-02-15T16:04:11;48.83;;;26.25;;
36691;SDS011;22678;52.052;4.242;2023-02-15T16:06:55;48.40;;;26.58;;
36691;SDS011;22678;52.052;4.242;2023-02-15T16:09:26;43.35;;;25.48;;
36691;SDS011;22678;52.052;4.242;2023-02-15T16:11:53;47.47;;;26.08;;
36691;SDS011;22678;52.052;4.242;2023-02-15T16:14:29;49.42;;;24.73;;
36691;SDS011;22678;52.052;4.242;2023-02-15T16:16:58;40.25;;;25.15;;
36691;SDS011;22678;52.052;4.242;2023-02-15T16:19:38;44.58;;;25.70;;
36691;SDS011;22678;52.052;4.242;2023-02-15T16:22:08;50.70;;;26.95;;
36691;SDS011;22678;52.052;4.242;2023-02-15T16:29:44;49.00;;;25.98;;
36691;SDS011;22678;52.052;4.242;2023-02-15T16:37:22;43.83;;;26.17;;
36691;SDS011;22678;52.052;4.242;2023-02-15T16:39:51;51.20;;;26.85;;
36691;SDS011;22678;52.052;4.242;2023-02-15T16:42:18;53.95;;;27.60;;
36691;SDS011;22678;52.052;4.242;2023-02-15T16:44:48;47.17;;;27.17;;
36691;SDS011;22678;52.052;4.242;2023-02-15T16:47:18;41.35;;;24.92;;
36691;SDS011;22678;52.052;4.242;2023-02-15T16:49:48;42.50;;;26.40;;
36691;SDS011;22678;52.052;4.242;2023-02-15T16:52:20;47.42;;;25.85;;
36691;SDS011;22678;52.052;4.242;2023-02-15T16:57:35;43.92;;;23.60;;
36691;SDS011;22678;52.052;4.242;2023-02-15T17:00:04;47.50;;;26.92;;
36691;SDS011;22678;52.052;4.242;2023-02-15T17:02:33;44.92;;;27.17;;
36691;SDS011;22678;52.052;4.242;2023-02-15T17:07:40;42.70;;;26.88;;
36691;SDS011;22678;52.052;4.242;2023-02-15T17:10:29;44.78;;;26.08;;
36691;SDS011;22678;52.052;4.242;2023-02-15T17:13:02;46.58;;;25.60;;
36691;SDS011;22678;52.052;4.242;2023-02-15T17:15:35;50.95;;;29.45;;
36691;SDS011;22678;52.052;4.242;2023-02-15T17:20:37;46.80;;;29.15;;
36691;SDS011;22678;52.052;4.242;2023-02-15T17:23:06;47.22;;;27.42;;
36691;SDS011;22678;52.052;4.242;2023-02-15T17:25:42;42.83;;;25.58;;
36691;SDS011;22678;52.052;4.242;2023-02-15T17:28:21;47.33;;;27.67;;
36691;SDS011;22678;52.052;4.242;2023-02-15T17:30:50;48.85;;;27.85;;
36691;SDS011;22678;52.052;4.242;2023-02-15T17:36:01;47.28;;;29.08;;
36691;SDS011;22678;52.052;4.242;2023-02-15T17:38:29;45.63;;;26.50;;
36691;SDS011;22678;52.052;4.242;2023-02-15T17:40:55;47.60;;;25.83;;
36691;SDS011;22678;52.052;4.242;2023-02-15T17:43:21;44.28;;;26.42;;
36691;SDS011;22678;52.052;4.242;2023-02-15T17:45:47;49.00;;;27.52;;
36691;SDS011;22678;52.052;4.242;2023-02-15T17:48:28;42.53;;;24.13;;
36691;SDS011;22678;52.052;4.242;2023-02-15T17:50:57;49.33;;;28.48;;
36691;SDS011;22678;52.052;4.242;2023-02-15T17:53:23;44.55;;;23.60;;